createdAt,value
2022-11-01T00:03:26.686Z,52.42
2022-11-01T00:08:29.213Z,52.22
2022-11-01T00:13:31.808Z,52.59
2022-11-01T00:18:34.032Z,52.67
2022-11-01T00:23:37.530Z,52.48
2022-11-01T00:28:39.972Z,52.70
2022-11-01T00:33:42.559Z,52.79
2022-11-01T00:38:44.743Z,53.07
2022-11-01T00:43:47.056Z,53.02
2022-11-01T00:48:50.037Z,52.99
2022-11-01T00:53:52.452Z,53.55
2022-11-01T00:58:54.661Z,53.00
2022-11-01T01:03:56.890Z,52.94
2022-11-01T01:09:00.917Z,53.17
2022-11-01T01:14:03.326Z,52.97
2022-11-01T01:19:05.700Z,53.22
2022-11-01T01:24:08.062Z,53.31
2022-11-01T01:29:10.378Z,53.05
2022-11-01T01:34:12.571Z,53.20
2022-11-01T01:39:14.998Z,53.35
2022-11-01T01:44:50.419Z,53.22
2022-11-01T01:50:12.697Z,53.17
2022-11-01T01:55:19.265Z,53.88
2022-11-01T02:00:21.795Z,53.95
2022-11-01T02:05:50.279Z,54.84
2022-11-01T02:10:52.929Z,54.30
2022-11-01T02:16:19.802Z,53.91
2022-11-01T02:21:24.741Z,54.23
2022-11-01T02:26:49.359Z,54.34
2022-11-01T02:32:21.140Z,54.35
2022-11-01T02:37:54.249Z,54.53
2022-11-01T02:43:05.693Z,54.97
2022-11-01T02:48:08.217Z,54.89
2022-11-01T02:53:11.237Z,55.12
2022-11-01T02:58:29.212Z,55.03
2022-11-01T03:03:36.425Z,55.22
2022-11-01T03:08:45.765Z,55.00
2022-11-01T03:13:54.126Z,55.38
2022-11-01T03:19:05.356Z,55.53
2022-11-01T03:24:30.367Z,55.50
2022-11-01T03:29:35.799Z,55.64
2022-11-01T03:34:39.739Z,56.03
2022-11-01T03:39:44.234Z,56.46
2022-11-01T03:44:51.194Z,56.70
2022-11-01T03:50:16.751Z,56.59
2022-11-01T03:55:20.499Z,56.54
2022-11-01T04:00:26.949Z,56.75
2022-11-01T04:05:31.655Z,57.12
2022-11-01T04:10:34.430Z,57.31
2022-11-01T04:15:55.499Z,57.72
2022-11-01T04:20:58.304Z,57.84
2022-11-01T04:26:00.600Z,58.27
2022-11-01T04:31:03.072Z,58.31
2022-11-01T04:36:09.079Z,58.47
2022-11-01T04:41:12.126Z,57.97
2022-11-01T04:46:14.816Z,58.15
2022-11-01T04:51:17.420Z,58.30
2022-11-01T04:56:19.568Z,58.51
2022-11-01T05:01:22.149Z,59.30
2022-11-01T05:06:24.586Z,58.90
2022-11-01T05:11:27.043Z,58.78
2022-11-01T05:16:29.289Z,58.26
2022-11-01T05:21:31.534Z,57.98
2022-11-01T05:26:34.166Z,57.98
2022-11-01T05:31:37.343Z,57.99
2022-11-01T05:36:40.196Z,58.04
2022-11-01T05:41:42.388Z,57.98
2022-11-01T05:46:44.911Z,57.83
2022-11-01T05:51:47.444Z,57.76
2022-11-01T05:56:49.985Z,57.96
2022-11-01T06:01:52.530Z,57.26
2022-11-01T06:06:54.813Z,57.22
2022-11-01T06:11:57.177Z,57.60
2022-11-01T06:16:59.532Z,57.22
2022-11-01T06:22:01.921Z,57.00
2022-11-01T06:27:07.433Z,56.96
2022-11-01T06:32:12.358Z,56.93
2022-11-01T06:37:14.631Z,56.67
2022-11-01T06:42:17.075Z,56.52
2022-11-01T06:47:19.441Z,56.43
2022-11-01T06:52:21.750Z,55.88
2022-11-01T06:57:24.332Z,55.76
2022-11-01T07:02:29.595Z,55.42
2022-11-01T07:07:32.333Z,55.27
2022-11-01T07:12:34.653Z,54.87
2022-11-01T07:17:37.020Z,54.47
2022-11-01T07:22:39.378Z,53.92
2022-11-01T07:27:41.806Z,53.67
2022-11-01T07:32:44.099Z,53.53
2022-11-01T07:37:46.318Z,53.20
2022-11-01T07:42:48.562Z,52.48
2022-11-01T07:47:51.100Z,52.19
2022-11-01T07:53:07.788Z,51.87
2022-11-01T07:58:11.189Z,51.44
2022-11-01T08:03:18.645Z,51.17
2022-11-01T08:08:21.065Z,50.99
2022-11-01T08:13:25.429Z,50.59
2022-11-01T08:18:27.666Z,50.22
2022-11-01T08:23:30.205Z,50.28
2022-11-01T08:28:33.516Z,49.70
2022-11-01T08:33:36.092Z,49.56
2022-11-01T08:38:38.442Z,49.38
2022-11-01T08:43:40.940Z,49.12
2022-11-01T08:48:43.360Z,49.06
2022-11-01T08:53:45.528Z,49.01
2022-11-01T08:58:49.880Z,48.84
2022-11-01T09:03:53.670Z,48.56
2022-11-01T09:08:56.535Z,48.24
2022-11-01T09:13:59.262Z,47.94
2022-11-01T09:19:02.261Z,47.09
2022-11-01T09:24:04.658Z,47.19
2022-11-01T09:29:06.948Z,46.89
2022-11-01T09:34:09.091Z,46.43
2022-11-01T09:39:11.503Z,46.32
2022-11-01T09:44:26.620Z,46.48
2022-11-01T09:49:33.700Z,46.00
2022-11-01T09:54:36.029Z,45.68
2022-11-01T09:59:41.335Z,45.56
2022-11-01T10:05:08.558Z,45.17
2022-11-01T10:10:32.487Z,44.56
2022-11-01T10:16:00.399Z,44.48
2022-11-01T10:21:09.135Z,44.08
2022-11-01T10:26:16.925Z,43.88
2022-11-01T10:31:24.216Z,43.14
2022-11-01T10:41:50.927Z,42.76
2022-11-01T10:46:53.979Z,41.87
2022-11-01T10:52:03.190Z,40.85
2022-11-01T10:57:10.968Z,40.56
2022-11-01T11:02:38.968Z,41.02
2022-11-01T11:07:41.990Z,40.52
2022-11-01T11:12:46.714Z,40.74
2022-11-01T11:17:55.147Z,40.30
2022-11-01T11:23:02.375Z,39.34
2022-11-01T11:28:06.092Z,39.64
2022-11-01T11:33:18.337Z,39.61
2022-11-01T11:38:42.026Z,39.08
2022-11-01T11:43:44.282Z,38.65
2022-11-01T11:48:52.905Z,38.35
2022-11-01T11:54:21.574Z,38.37
2022-11-01T11:59:30.049Z,37.61
2022-11-01T12:04:40.925Z,37.18
2022-11-01T12:09:48.725Z,36.04
2022-11-01T12:14:52.642Z,35.74
2022-11-01T12:20:14.448Z,35.73
2022-11-01T12:25:25.453Z,34.95
2022-11-01T12:30:31.432Z,35.36
2022-11-01T12:35:44.791Z,35.04
2022-11-01T12:40:51.000Z,35.13
2022-11-01T12:46:03.205Z,35.15
2022-11-01T12:51:12.779Z,34.45
2022-11-01T12:56:15.365Z,34.17
2022-11-01T13:01:24.879Z,34.27
2022-11-01T13:06:45.567Z,34.36
2022-11-01T13:12:25.837Z,34.39
2022-11-01T13:17:56.993Z,33.84
2022-11-01T13:23:12.044Z,33.47
2022-11-01T13:28:26.502Z,33.24
2022-11-01T13:33:40.690Z,33.24
2022-11-01T13:38:53.553Z,32.80
2022-11-01T13:44:03.361Z,32.82
2022-11-01T13:49:11.078Z,32.43
2022-11-01T13:54:32.932Z,32.37
2022-11-01T13:59:37.957Z,32.22
2022-11-01T14:04:40.802Z,31.67
2022-11-01T14:09:52.303Z,31.57
2022-11-01T14:14:54.565Z,31.30
2022-11-01T14:19:56.806Z,31.26
2022-11-01T14:25:24.654Z,30.94
2022-11-01T14:30:32.694Z,30.98
2022-11-01T14:35:38.128Z,30.67
2022-11-01T14:40:53.858Z,30.99
2022-11-01T14:46:14.676Z,31.12
2022-11-01T14:51:38.269Z,31.68
2022-11-01T14:56:41.282Z,32.15
2022-11-01T15:01:49.473Z,32.80
2022-11-01T15:06:52.525Z,32.94
2022-11-01T15:12:05.774Z,33.69
2022-11-01T15:17:23.278Z,34.13
2022-11-01T15:22:32.461Z,34.36
2022-11-01T15:27:45.191Z,35.02
2022-11-01T15:32:53.762Z,35.36
2022-11-01T15:37:57.738Z,35.46
2022-11-01T15:43:02.116Z,36.36
2022-11-01T15:48:12.845Z,37.02
2022-11-01T15:53:20.942Z,37.63
2022-11-01T15:58:32.609Z,38.35
2022-11-01T16:03:45.505Z,38.93
2022-11-01T16:08:53.861Z,39.46
2022-11-01T16:14:07.716Z,39.83
2022-11-01T16:19:28.305Z,40.77
2022-11-01T16:24:32.653Z,41.42
2022-11-01T16:29:51.771Z,41.32
2022-11-01T16:34:55.844Z,41.69
2022-11-01T16:40:00.955Z,42.04
2022-11-01T16:45:03.486Z,42.35
2022-11-01T16:50:06.098Z,42.49
2022-11-01T16:55:08.804Z,42.27
2022-11-01T17:00:14.272Z,42.62
2022-11-01T17:05:24.111Z,43.26
2022-11-01T17:10:26.673Z,43.52
2022-11-01T17:15:29.745Z,43.60
2022-11-01T17:20:32.714Z,44.25
2022-11-01T17:25:34.889Z,44.14
2022-11-01T17:30:37.555Z,44.66
2022-11-01T17:35:40.820Z,45.04
2022-11-01T17:40:46.138Z,45.43
2022-11-01T17:45:49.902Z,45.31
2022-11-01T17:50:52.264Z,45.45
2022-11-01T17:55:58.302Z,46.14
2022-11-01T18:01:00.550Z,46.12
2022-11-01T18:06:03.082Z,46.30
2022-11-01T18:11:32.811Z,47.01
2022-11-01T18:16:55.135Z,47.95
2022-11-01T18:22:06.151Z,47.57
2022-11-01T18:27:13.980Z,47.58
2022-11-01T18:32:22.723Z,47.74
2022-11-01T18:38:03.552Z,47.50
2022-11-01T18:43:09.038Z,47.80
2022-11-01T18:48:24.955Z,47.83
2022-11-01T18:53:29.983Z,47.99
2022-11-01T18:58:40.507Z,48.11
2022-11-01T19:03:43.013Z,48.36
2022-11-01T19:08:53.040Z,48.27
2022-11-01T19:13:59.752Z,47.93
2022-11-01T19:19:01.956Z,48.21
2022-11-01T19:24:17.019Z,48.38
2022-11-01T19:29:26.561Z,48.38
2022-11-01T19:34:30.454Z,48.25
2022-11-01T19:39:38.627Z,48.73
2022-11-01T19:44:40.913Z,48.57
2022-11-01T19:49:43.520Z,49.30
2022-11-01T19:54:49.970Z,49.34
2022-11-01T19:59:53.612Z,49.54
2022-11-01T20:04:59.971Z,49.92
2022-11-01T20:10:02.824Z,50.06
2022-11-01T20:15:05.272Z,50.15
2022-11-01T20:20:08.062Z,50.38
2022-11-01T20:25:10.325Z,50.65
2022-11-01T20:30:12.810Z,50.54
2022-11-01T20:35:15.122Z,50.65
2022-11-01T20:40:17.651Z,50.92
2022-11-01T20:45:19.942Z,51.05
2022-11-01T20:50:22.208Z,51.55
2022-11-01T20:55:24.719Z,51.74
2022-11-01T21:00:27.632Z,51.55
2022-11-01T21:05:31.826Z,51.48
2022-11-01T21:10:40.504Z,51.36
2022-11-01T21:15:46.649Z,51.86
2022-11-01T21:20:50.366Z,51.65
2022-11-01T21:25:58.296Z,51.69
2022-11-01T21:31:20.776Z,51.54
2022-11-01T21:36:23.106Z,51.78
2022-11-01T21:41:45.586Z,52.24
2022-11-01T21:46:55.652Z,52.20
2022-11-01T21:52:01.064Z,52.65
2022-11-01T21:57:05.911Z,52.60
2022-11-01T22:02:11.813Z,53.28
2022-11-01T22:07:14.285Z,53.08
2022-11-01T22:12:17.082Z,53.08
2022-11-01T22:17:19.536Z,53.11
2022-11-01T22:22:21.754Z,53.86
2022-11-01T22:27:23.997Z,53.70
2022-11-01T22:32:26.168Z,53.94
2022-11-01T22:37:30.888Z,53.51
2022-11-01T22:42:33.098Z,53.93
2022-11-01T22:47:35.719Z,54.02
2022-11-01T22:52:41.785Z,54.56
2022-11-01T22:57:58.688Z,54.47
2022-11-01T23:03:20.336Z,54.39
2022-11-01T23:08:30.032Z,54.31
2022-11-01T23:13:51.803Z,54.24
2022-11-01T23:19:01.816Z,53.99
2022-11-01T23:24:04.509Z,53.83
2022-11-01T23:29:06.812Z,53.87
2022-11-01T23:34:11.135Z,54.32
2022-11-01T23:39:15.184Z,54.08
2022-11-01T23:44:31.317Z,54.24
2022-11-01T23:49:35.252Z,54.29
2022-11-01T23:54:43.392Z,53.88
2022-11-01T23:59:46.222Z,53.87
